createdAt,value
2023-02-11T00:01:25.078Z,2.50
2023-02-11T00:03:53.615Z,6.60
2023-02-11T00:06:25.008Z,6.10
2023-02-11T00:08:53.022Z,7.60
2023-02-11T00:11:22.688Z,3.90
2023-02-11T00:13:50.720Z,6.10
2023-02-11T00:16:21.397Z,7.70
2023-02-11T00:18:50.521Z,4.80
2023-02-11T00:21:21.347Z,5.70
2023-02-11T00:23:49.620Z,6.70
2023-02-11T00:26:25.443Z,7.40
2023-02-11T00:28:53.654Z,5.40
2023-02-11T00:31:23.399Z,5.80
2023-02-11T00:33:51.778Z,4.10
2023-02-11T00:36:26.203Z,4.20
2023-02-11T00:38:56.066Z,6.70
2023-02-11T00:41:24.547Z,4.70
2023-02-11T00:43:52.673Z,6.90
2023-02-11T00:46:21.995Z,9.00
2023-02-11T00:48:51.929Z,12.40
2023-02-11T00:51:22.448Z,6.80
2023-02-11T00:53:50.699Z,7.00
2023-02-11T00:56:19.008Z,7.60
2023-02-11T00:58:47.156Z,5.00
2023-02-11T01:01:15.304Z,5.90
2023-02-11T01:03:44.474Z,7.20
2023-02-11T01:06:12.760Z,6.20
2023-02-11T01:08:40.959Z,4.50
2023-02-11T01:11:16.688Z,6.60
2023-02-11T01:13:47.817Z,9.50
2023-02-11T01:16:18.740Z,6.80
2023-02-11T01:18:47.405Z,6.30
2023-02-11T01:21:16.319Z,8.20
2023-02-11T01:23:44.544Z,7.20
2023-02-11T01:26:13.831Z,7.00
2023-02-11T01:28:41.935Z,7.30
2023-02-11T01:31:10.284Z,9.70
2023-02-11T01:33:38.647Z,6.20
2023-02-11T01:36:08.586Z,6.90
2023-02-11T01:38:37.001Z,7.40
2023-02-11T01:41:11.963Z,6.40
2023-02-11T01:43:46.311Z,7.20
2023-02-11T01:46:31.709Z,6.50
2023-02-11T01:49:18.655Z,8.80
2023-02-11T01:52:06.495Z,7.60
2023-02-11T01:54:57.069Z,3.60
2023-02-11T01:57:29.548Z,7.40
2023-02-11T02:00:21.079Z,7.70
2023-02-11T02:03:22.726Z,7.10
2023-02-11T02:06:15.451Z,5.40
2023-02-11T02:11:18.687Z,7.40
2023-02-11T02:13:47.068Z,10.70
2023-02-11T02:16:18.021Z,6.50
2023-02-11T02:19:14.190Z,5.90
2023-02-11T02:22:07.996Z,7.10
2023-02-11T02:24:42.043Z,5.60
2023-02-11T02:27:20.123Z,6.40
2023-02-11T02:29:54.317Z,8.60
2023-02-11T02:32:22.343Z,5.50
2023-02-11T02:34:58.381Z,8.40
2023-02-11T02:38:00.179Z,7.00
2023-02-11T02:40:45.030Z,6.00
2023-02-11T02:43:15.444Z,6.50
2023-02-11T02:45:43.418Z,9.60
2023-02-11T02:48:44.827Z,4.00
2023-02-11T02:51:42.428Z,10.20
2023-02-11T02:54:29.580Z,7.60
2023-02-11T02:57:06.672Z,5.30
2023-02-11T02:59:50.051Z,4.80
2023-02-11T03:02:35.105Z,5.80
2023-02-11T03:05:32.555Z,6.50
2023-02-11T03:08:12.379Z,8.20
2023-02-11T03:10:51.381Z,8.20
2023-02-11T03:13:25.378Z,6.90
2023-02-11T03:15:57.452Z,6.80
2023-02-11T03:18:28.971Z,6.80
2023-02-11T03:20:57.712Z,7.60
2023-02-11T03:23:35.467Z,6.40
2023-02-11T03:26:12.513Z,6.30
2023-02-11T03:29:03.854Z,5.30
2023-02-11T03:31:42.386Z,6.20
2023-02-11T03:34:16.831Z,5.60
2023-02-11T03:36:49.816Z,5.70
2023-02-11T03:39:38.017Z,8.70
2023-02-11T03:42:09.476Z,6.20
2023-02-11T03:44:50.066Z,8.10
2023-02-11T03:47:23.629Z,6.10
2023-02-11T03:49:54.782Z,5.00
2023-02-11T03:52:24.892Z,5.60
2023-02-11T03:54:57.204Z,5.30
2023-02-11T03:57:25.207Z,6.30
2023-02-11T03:59:58.836Z,7.20
2023-02-11T04:02:33.863Z,5.30
2023-02-11T04:05:02.373Z,5.10
2023-02-11T04:07:30.832Z,5.80
2023-02-11T04:09:58.850Z,9.70
2023-02-11T04:12:26.989Z,5.40
2023-02-11T04:14:55.106Z,5.20
2023-02-11T04:17:23.450Z,4.60
2023-02-11T04:19:51.415Z,5.90
2023-02-11T04:22:19.514Z,6.90
2023-02-11T04:24:47.653Z,10.90
2023-02-11T04:27:15.992Z,12.80
2023-02-11T04:29:44.275Z,4.40
2023-02-11T04:32:12.548Z,8.90
2023-02-11T04:34:40.721Z,7.20
2023-02-11T04:37:08.941Z,6.00
2023-02-11T04:39:37.003Z,5.10
2023-02-11T04:42:05.448Z,4.60
2023-02-11T04:44:33.917Z,7.60
2023-02-11T04:47:02.250Z,5.50
2023-02-11T04:49:30.929Z,6.30
2023-02-11T04:51:59.061Z,7.80
2023-02-11T04:54:27.641Z,5.10
2023-02-11T04:56:55.751Z,4.60
2023-02-11T04:59:24.808Z,6.60
2023-02-11T05:01:52.897Z,9.10
2023-02-11T05:04:20.978Z,4.80
2023-02-11T05:06:49.245Z,5.80
2023-02-11T05:09:17.829Z,5.20
2023-02-11T05:11:45.792Z,4.60
2023-02-11T05:14:13.802Z,8.50
2023-02-11T05:16:41.945Z,8.20
2023-02-11T05:19:10.406Z,9.20
2023-02-11T05:21:38.576Z,5.00
2023-02-11T05:24:07.461Z,5.10
2023-02-11T05:26:35.658Z,7.30
2023-02-11T05:29:03.761Z,6.20
2023-02-11T05:31:33.002Z,7.80
2023-02-11T05:34:04.022Z,8.40
2023-02-11T05:36:33.484Z,4.80
2023-02-11T05:39:01.720Z,5.00
2023-02-11T05:41:30.007Z,5.00
2023-02-11T05:43:58.303Z,5.70
2023-02-11T05:46:26.450Z,13.20
2023-02-11T05:48:56.666Z,20.00
2023-02-11T05:51:25.461Z,5.10
2023-02-11T05:53:53.801Z,6.20
2023-02-11T05:56:21.843Z,20.20
2023-02-11T05:58:50.066Z,34.50
2023-02-11T06:01:19.062Z,6.60
2023-02-11T06:03:47.422Z,4.90
2023-02-11T06:06:15.934Z,6.30
2023-02-11T06:08:44.098Z,6.50
2023-02-11T06:11:15.488Z,4.30
2023-02-11T06:13:44.032Z,6.90
2023-02-11T06:16:12.353Z,5.90
2023-02-11T06:18:40.579Z,6.50
2023-02-11T06:21:10.725Z,24.50
2023-02-11T06:23:38.789Z,30.30
2023-02-11T06:26:09.141Z,32.70
2023-02-11T06:28:39.382Z,10.20
2023-02-11T06:31:11.956Z,7.40
2023-02-11T06:33:40.362Z,4.80
2023-02-11T06:36:22.795Z,5.90
2023-02-11T06:38:51.260Z,7.80
2023-02-11T06:41:20.419Z,33.70
2023-02-11T06:43:49.286Z,29.10
2023-02-11T06:46:17.617Z,29.40
2023-02-11T06:48:46.004Z,32.80
2023-02-11T06:51:15.316Z,36.70
2023-02-11T06:53:45.918Z,67.00
2023-02-11T06:56:21.958Z,65.10
2023-02-11T06:58:54.879Z,60.80
2023-02-11T07:01:24.508Z,60.10
2023-02-11T07:03:53.701Z,62.50
2023-02-11T07:06:24.816Z,44.20
2023-02-11T07:08:53.214Z,41.70
2023-02-11T07:11:25.033Z,37.80
2023-02-11T07:13:55.398Z,38.40
2023-02-11T07:16:23.816Z,44.70
2023-02-11T07:18:52.164Z,59.50
2023-02-11T07:21:22.673Z,68.80
2023-02-11T07:23:51.879Z,54.20
2023-02-11T07:26:29.364Z,50.90
2023-02-11T07:28:57.680Z,61.80
2023-02-11T07:31:29.034Z,66.60
2023-02-11T07:34:00.092Z,66.80
2023-02-11T07:36:30.596Z,50.30
2023-02-11T07:38:59.083Z,41.80
2023-02-11T07:41:27.881Z,33.20
2023-02-11T07:43:56.724Z,18.60
2023-02-11T07:46:27.119Z,19.90
2023-02-11T07:48:56.133Z,23.40
2023-02-11T07:51:27.065Z,22.50
2023-02-11T07:53:56.698Z,23.10
2023-02-11T07:56:24.864Z,35.50
2023-02-11T07:58:53.644Z,25.00
2023-02-11T08:01:25.439Z,22.00
2023-02-11T08:03:54.793Z,27.50
2023-02-11T08:06:24.923Z,26.70
2023-02-11T08:08:53.252Z,23.70
2023-02-11T08:11:24.521Z,26.30
2023-02-11T08:13:53.819Z,21.10
2023-02-11T08:16:31.342Z,22.10
2023-02-11T08:19:02.296Z,21.30
2023-02-11T08:21:30.756Z,21.50
2023-02-11T08:23:59.429Z,22.70
2023-02-11T08:26:29.682Z,23.70
2023-02-11T08:28:58.954Z,24.40
2023-02-11T08:31:34.260Z,19.80
2023-02-11T08:34:02.788Z,16.00
2023-02-11T08:36:34.390Z,18.80
2023-02-11T08:39:18.053Z,18.50
2023-02-11T08:41:50.471Z,27.00
2023-02-11T08:44:20.138Z,24.30
2023-02-11T08:46:49.107Z,34.00
2023-02-11T08:49:17.329Z,28.90
2023-02-11T08:51:46.612Z,18.10
2023-02-11T08:54:15.215Z,24.00
2023-02-11T08:56:43.467Z,22.80
2023-02-11T08:59:14.758Z,22.20
2023-02-11T09:01:44.667Z,24.70
2023-02-11T09:04:13.626Z,17.30
2023-02-11T09:06:42.209Z,18.20
2023-02-11T09:09:15.220Z,29.40
2023-02-11T09:11:44.873Z,34.80
2023-02-11T09:14:22.340Z,29.50
2023-02-11T09:16:51.865Z,17.20
2023-02-11T09:19:21.413Z,26.10
2023-02-11T09:21:49.883Z,21.20
2023-02-11T09:24:18.672Z,18.60
2023-02-11T09:26:46.865Z,24.30
2023-02-11T09:29:15.021Z,20.40
2023-02-11T09:31:43.281Z,21.50
2023-02-11T09:34:12.093Z,22.80
2023-02-11T09:36:41.393Z,23.80
2023-02-11T09:39:14.466Z,21.10
2023-02-11T09:41:51.816Z,18.20
2023-02-11T09:44:25.613Z,19.30
2023-02-11T09:47:01.867Z,18.00
2023-02-11T09:49:44.648Z,24.10
2023-02-11T09:52:19.071Z,22.30
2023-02-11T09:54:56.908Z,24.80
2023-02-11T09:57:36.511Z,30.50
2023-02-11T10:00:24.850Z,23.90
2023-02-11T10:02:57.746Z,25.50
2023-02-11T10:06:19.778Z,24.90
2023-02-11T10:09:09.687Z,21.90
2023-02-11T10:11:48.089Z,23.80
2023-02-11T10:14:16.088Z,22.70
2023-02-11T10:16:54.715Z,23.10
2023-02-11T10:19:47.429Z,24.50
2023-02-11T10:22:34.079Z,26.80
2023-02-11T10:25:17.836Z,22.80
2023-02-11T10:27:46.416Z,24.20
2023-02-11T10:30:38.001Z,23.50
2023-02-11T10:33:50.996Z,25.40
2023-02-11T10:36:28.523Z,25.10
2023-02-11T10:39:00.004Z,26.70
2023-02-11T10:41:34.490Z,22.80
2023-02-11T10:44:03.286Z,21.50
2023-02-11T10:46:35.375Z,23.00
2023-02-11T10:49:04.010Z,19.90
2023-02-11T10:51:34.336Z,25.20
2023-02-11T10:54:19.743Z,19.10
2023-02-11T10:56:58.609Z,22.80
2023-02-11T10:59:29.368Z,22.60
2023-02-11T11:02:08.073Z,20.60
2023-02-11T11:04:41.004Z,25.40
2023-02-11T11:07:21.408Z,20.20
2023-02-11T11:09:55.580Z,19.20
2023-02-11T11:12:45.809Z,21.30
2023-02-11T11:15:23.193Z,18.30
2023-02-11T11:18:20.940Z,21.70
2023-02-11T11:20:59.354Z,20.20
2023-02-11T11:23:30.043Z,20.40
2023-02-11T11:26:13.749Z,21.10
2023-02-11T11:28:59.135Z,17.00
2023-02-11T11:31:32.785Z,19.00
2023-02-11T11:34:14.951Z,31.40
2023-02-11T11:36:44.252Z,26.00
2023-02-11T11:39:33.910Z,28.00
2023-02-11T11:42:08.255Z,24.90
2023-02-11T11:44:39.921Z,28.40
2023-02-11T11:47:29.811Z,21.30
2023-02-11T11:50:29.112Z,25.90
2023-02-11T11:53:00.330Z,17.50
2023-02-11T11:55:35.047Z,18.30
2023-02-11T11:58:04.865Z,23.10
2023-02-11T12:01:06.597Z,22.80
2023-02-11T12:03:37.255Z,21.00
2023-02-11T12:06:39.246Z,20.90
2023-02-11T12:09:27.056Z,18.40
2023-02-11T12:12:41.674Z,20.80
2023-02-11T12:15:54.926Z,20.20
2023-02-11T12:18:45.499Z,20.10
2023-02-11T12:21:29.701Z,21.40
2023-02-11T12:24:17.484Z,24.40
2023-02-11T12:26:56.633Z,25.80
2023-02-11T12:29:24.698Z,33.90
2023-02-11T12:32:14.197Z,22.20
2023-02-11T12:35:13.274Z,19.20
2023-02-11T12:38:05.436Z,22.40
2023-02-11T12:41:02.927Z,21.40
2023-02-11T12:43:41.168Z,22.90
2023-02-11T12:46:16.030Z,20.90
2023-02-11T12:48:46.996Z,19.60
2023-02-11T12:51:27.563Z,20.80
2023-02-11T12:54:11.078Z,26.80
2023-02-11T12:56:51.129Z,20.80
2023-02-11T12:59:57.847Z,22.30
2023-02-11T13:02:56.787Z,23.80
2023-02-11T13:05:27.712Z,27.50
2023-02-11T13:08:06.034Z,26.60
2023-02-11T13:10:37.423Z,24.50
2023-02-11T13:13:21.274Z,18.40
2023-02-11T13:15:55.334Z,23.60
2023-02-11T13:18:32.558Z,25.60
2023-02-11T13:21:16.254Z,20.00
2023-02-11T13:26:32.807Z,22.80
2023-02-11T13:29:16.106Z,24.40
2023-02-11T13:31:56.913Z,22.30
2023-02-11T13:34:43.406Z,26.20
2023-02-11T13:37:21.476Z,24.10
2023-02-11T13:40:01.364Z,22.60
2023-02-11T13:42:31.663Z,19.50
2023-02-11T13:45:01.054Z,18.70
2023-02-11T13:47:33.348Z,22.20
2023-02-11T13:50:05.739Z,22.90
2023-02-11T13:52:39.077Z,25.90
2023-02-11T13:55:22.691Z,24.20
2023-02-11T14:00:33.940Z,23.90
2023-02-11T14:03:29.853Z,24.50
2023-02-11T14:06:30.712Z,23.30
2023-02-11T14:09:11.569Z,22.30
2023-02-11T14:11:45.738Z,18.60
2023-02-11T14:14:33.918Z,18.40
2023-02-11T14:17:08.176Z,18.90
2023-02-11T14:19:47.825Z,17.30
2023-02-11T14:22:18.911Z,19.20
2023-02-11T14:25:20.409Z,14.70
2023-02-11T14:27:51.534Z,18.40
2023-02-11T14:30:39.569Z,16.50
2023-02-11T14:33:35.088Z,17.20
2023-02-11T14:36:23.342Z,15.20
2023-02-11T14:39:14.088Z,14.20
2023-02-11T14:41:44.597Z,19.20
2023-02-11T14:44:23.498Z,19.40
2023-02-11T14:46:55.604Z,16.40
2023-02-11T14:49:35.284Z,15.90
2023-02-11T14:52:37.453Z,20.10
2023-02-11T14:55:11.331Z,16.60
2023-02-11T14:57:39.412Z,16.10
2023-02-11T15:00:19.754Z,15.80
2023-02-11T15:02:48.530Z,13.00
2023-02-11T15:05:29.069Z,14.40
2023-02-11T15:08:02.025Z,15.90
2023-02-11T15:10:37.843Z,17.00
2023-02-11T15:13:06.141Z,14.90
2023-02-11T15:15:36.638Z,15.10
2023-02-11T15:18:05.748Z,33.10
2023-02-11T15:20:36.034Z,23.80
2023-02-11T15:23:09.386Z,18.60
2023-02-11T15:25:44.415Z,18.80
2023-02-11T15:28:31.453Z,18.30
2023-02-11T15:31:06.748Z,16.80
2023-02-11T15:33:34.952Z,18.20
2023-02-11T15:36:03.959Z,15.60
2023-02-11T15:38:32.320Z,17.40
2023-02-11T15:41:03.391Z,17.50
2023-02-11T15:44:04.383Z,20.00
2023-02-11T15:46:38.716Z,15.40
2023-02-11T15:49:08.637Z,19.90
2023-02-11T15:51:40.007Z,22.10
2023-02-11T15:54:18.058Z,19.00
2023-02-11T15:56:50.871Z,16.60
2023-02-11T15:59:38.397Z,22.70
2023-02-11T16:02:16.102Z,19.90
2023-02-11T16:05:00.014Z,16.00
2023-02-11T16:07:57.453Z,11.90
2023-02-11T16:10:30.736Z,18.80
2023-02-11T16:13:20.008Z,18.40
2023-02-11T16:15:51.110Z,14.50
2023-02-11T16:18:37.723Z,17.00
2023-02-11T16:21:16.283Z,19.30
2023-02-11T16:23:51.585Z,14.40
2023-02-11T16:26:26.508Z,14.20
2023-02-11T16:29:13.289Z,12.80
2023-02-11T16:31:44.841Z,12.00
2023-02-11T16:34:21.193Z,15.20
2023-02-11T16:36:50.844Z,13.60
2023-02-11T16:39:23.699Z,11.40
2023-02-11T16:41:52.594Z,11.40
2023-02-11T16:44:20.642Z,14.80
2023-02-11T16:46:48.843Z,12.20
2023-02-11T16:49:24.124Z,18.50
2023-02-11T16:51:56.949Z,12.00
2023-02-11T16:54:25.277Z,15.30
2023-02-11T16:56:53.549Z,16.20
2023-02-11T16:59:21.926Z,15.80
2023-02-11T17:01:52.136Z,15.80
2023-02-11T17:04:25.041Z,15.10
2023-02-11T17:06:53.133Z,16.00
2023-02-11T17:09:24.552Z,17.30
2023-02-11T17:11:52.865Z,24.80
2023-02-11T17:14:21.017Z,25.30
2023-02-11T17:16:49.250Z,21.10
2023-02-11T17:19:22.362Z,17.60
2023-02-11T17:21:52.780Z,32.30
2023-02-11T17:24:21.988Z,31.50
2023-02-11T17:26:50.760Z,27.00
2023-02-11T17:29:24.544Z,27.80
2023-02-11T17:31:53.289Z,23.20
2023-02-11T17:34:23.040Z,25.10
2023-02-11T17:36:51.859Z,30.90
2023-02-11T17:39:21.171Z,26.70
2023-02-11T17:41:49.498Z,28.80
2023-02-11T17:44:17.673Z,30.50
2023-02-11T17:46:45.757Z,40.10
2023-02-11T17:49:13.809Z,32.80
2023-02-11T17:51:42.064Z,28.90
2023-02-11T17:54:17.336Z,32.60
2023-02-11T17:56:46.853Z,28.10
2023-02-11T17:59:14.981Z,28.70
2023-02-11T18:01:43.481Z,28.30
2023-02-11T18:04:18.399Z,26.50
2023-02-11T18:06:46.553Z,28.60
2023-02-11T18:09:14.789Z,29.20
2023-02-11T18:11:42.878Z,28.90
2023-02-11T18:14:11.289Z,30.90
2023-02-11T18:16:43.185Z,29.70
2023-02-11T18:19:12.615Z,30.00
2023-02-11T18:21:40.779Z,31.10
2023-02-11T18:24:09.062Z,33.30
2023-02-11T18:26:37.360Z,35.10
2023-02-11T18:29:07.111Z,30.40
2023-02-11T18:31:35.516Z,31.50
2023-02-11T18:34:07.619Z,38.00
2023-02-11T18:36:36.307Z,35.40
2023-02-11T18:39:05.951Z,31.80
2023-02-11T18:41:34.094Z,30.60
2023-02-11T18:44:03.392Z,34.60
2023-02-11T18:46:31.766Z,38.20
2023-02-11T18:48:59.942Z,32.70
2023-02-11T18:51:28.485Z,33.80
2023-02-11T18:53:56.588Z,38.30
2023-02-11T18:56:27.865Z,36.40
2023-02-11T18:58:57.298Z,31.60
2023-02-11T19:01:27.594Z,29.70
2023-02-11T19:03:58.344Z,30.00
2023-02-11T19:06:29.099Z,31.70
2023-02-11T19:09:00.292Z,30.00
2023-02-11T19:11:50.057Z,28.10
2023-02-11T19:14:20.078Z,27.50
2023-02-11T19:16:50.743Z,28.50
2023-02-11T19:19:20.107Z,31.90
2023-02-11T19:21:48.947Z,33.10
2023-02-11T19:24:21.436Z,33.30
2023-02-11T19:26:51.804Z,32.50
2023-02-11T19:29:19.865Z,31.80
2023-02-11T19:31:48.390Z,31.00
2023-02-11T19:34:19.987Z,33.20
2023-02-11T19:36:49.935Z,32.10
2023-02-11T19:39:18.568Z,34.00
2023-02-11T19:41:46.782Z,32.80
2023-02-11T19:44:15.009Z,30.40
2023-02-11T19:46:43.199Z,33.40
2023-02-11T19:49:16.517Z,29.80
2023-02-11T19:51:44.861Z,35.70
2023-02-11T19:54:13.182Z,34.80
2023-02-11T19:56:41.515Z,32.30
2023-02-11T19:59:09.727Z,33.80
2023-02-11T20:01:37.859Z,36.10
2023-02-11T20:04:06.253Z,31.90
2023-02-11T20:06:35.474Z,33.60
2023-02-11T20:09:10.129Z,33.80
2023-02-11T20:11:39.014Z,34.00
2023-02-11T20:14:07.560Z,33.80
2023-02-11T20:16:47.660Z,32.10
2023-02-11T20:19:20.049Z,39.40
2023-02-11T20:21:51.169Z,32.10
2023-02-11T20:24:20.543Z,34.80
2023-02-11T20:26:49.603Z,37.70
2023-02-11T20:29:18.143Z,34.60
2023-02-11T20:31:46.734Z,33.00
2023-02-11T20:34:17.688Z,33.80
2023-02-11T20:36:52.089Z,33.80
2023-02-11T20:39:22.523Z,33.10
2023-02-11T20:41:51.818Z,35.30
2023-02-11T20:44:23.964Z,29.60
2023-02-11T20:46:54.633Z,33.70
2023-02-11T20:49:24.410Z,34.50
2023-02-11T20:51:54.107Z,35.70
2023-02-11T20:54:23.831Z,32.80
2023-02-11T20:56:55.553Z,30.40
2023-02-11T20:59:24.501Z,34.30
2023-02-11T21:01:55.780Z,37.30
2023-02-11T21:04:29.692Z,28.20
2023-02-11T21:07:01.704Z,34.90
2023-02-11T21:09:33.362Z,35.90
2023-02-11T21:12:02.455Z,35.70
2023-02-11T21:14:30.718Z,35.70
2023-02-11T21:16:59.043Z,37.80
2023-02-11T21:19:27.300Z,42.90
2023-02-11T21:21:57.349Z,45.00
2023-02-11T21:24:25.700Z,44.50
2023-02-11T21:26:54.806Z,33.50
2023-02-11T21:29:22.921Z,36.50
2023-02-11T21:31:51.507Z,31.90
2023-02-11T21:34:20.248Z,32.00
2023-02-11T21:36:51.310Z,30.50
2023-02-11T21:39:20.479Z,32.50
2023-02-11T21:41:48.574Z,34.50
2023-02-11T21:44:16.600Z,31.60
2023-02-11T21:46:44.871Z,36.60
2023-02-11T21:49:13.111Z,33.70
2023-02-11T21:51:41.253Z,32.10
2023-02-11T21:54:11.681Z,34.50
2023-02-11T21:56:40.712Z,34.00
2023-02-11T21:59:13.993Z,32.00
2023-02-11T22:01:42.092Z,30.80
2023-02-11T22:04:10.202Z,32.90
2023-02-11T22:06:38.707Z,27.30
2023-02-11T22:09:09.038Z,29.10
2023-02-11T22:11:37.453Z,27.90
2023-02-11T22:14:05.517Z,27.40
2023-02-11T22:16:33.803Z,33.60
2023-02-11T22:19:07.216Z,32.70
2023-02-11T22:24:03.404Z,31.30
2023-02-11T22:26:31.533Z,34.20
2023-02-11T22:28:59.570Z,30.50
2023-02-11T22:31:30.850Z,33.00
2023-02-11T22:34:00.489Z,34.40
2023-02-11T22:36:31.497Z,37.30
2023-02-11T22:39:08.908Z,35.00
2023-02-11T22:41:40.599Z,41.20
2023-02-11T22:44:09.748Z,42.40
2023-02-11T22:46:38.698Z,40.00
2023-02-11T22:49:07.490Z,43.90
2023-02-11T22:51:35.893Z,38.30
2023-02-11T22:54:06.891Z,40.40
2023-02-11T22:56:35.333Z,39.30
2023-02-11T22:59:07.604Z,39.40
2023-02-11T23:01:36.148Z,40.90
2023-02-11T23:04:06.434Z,35.00
2023-02-11T23:06:34.968Z,35.20
2023-02-11T23:09:08.505Z,36.10
2023-02-11T23:14:05.445Z,39.00
2023-02-11T23:16:34.989Z,39.90
2023-02-11T23:19:07.622Z,34.60
2023-02-11T23:21:38.614Z,35.50
2023-02-11T23:24:10.965Z,31.50
2023-02-11T23:26:40.670Z,32.30
2023-02-11T23:29:09.354Z,32.50
2023-02-11T23:31:40.499Z,33.50
2023-02-11T23:34:09.403Z,33.10
2023-02-11T23:36:37.988Z,33.40
2023-02-11T23:39:06.433Z,32.90
2023-02-11T23:41:34.905Z,31.90
2023-02-11T23:44:02.921Z,30.80
2023-02-11T23:46:30.927Z,27.30
2023-02-11T23:48:59.125Z,30.60
2023-02-11T23:51:27.185Z,26.70
2023-02-11T23:53:56.319Z,27.30
2023-02-11T23:56:27.740Z,28.80
2023-02-11T23:58:58.725Z,28.90
